Huvudsida
METAR-TAF:

METAR-TAF

Flygplatser :

Buochs flygplats

Buochs, Schweiz

latitud: 46-58-28N, longitud: 8-23-49E, höjd: 449 m

Aktuellt väderrapport

Denna rapport gjordes för 18 minuter sedan, klockan 18:20 UTC
Vind 2 kt varierande vindriktning
Temperatur 0°C
Fuktighet 100%
Tryck 1023 hPa
Sikt: 2600 m
Få moln på en höjd av 14000 ft
fuktdis

METAR: LSZC 241820Z AUTO VRB02KT 2600 BR FEW140 00/M00 Q1023

Tid: 19:38 (18:38 UTC)

Väderprognos

Denna rapport gjordes för 4 timmar och 13 minuter sedan, klockan 14:25 UTC
Prognos gäller från 24 kl. 15 UTC till 24 kl. 24 UTC
Vind 3 kt varierande vindriktning
Sikt: 4000 m
Brutna moln på en höjd av 300 ft
fuktdis
Temporärt
från 24 kl. 15 UTC till 24 kl. 24 UTC
Sikt: 2500 m
Brutna moln på en höjd av 100 ft

TAF: LSZC 241425Z 2415/2424 VRB03KT 4000 BR BKN003 TEMPO 2415/2424 2500 BKN001

Aktuella väderrapporter och prognoser från 4000 flygplatser (METAR- och TAF-rapporter).

De tillgängliga stationerna syns som gula och röda prickar på kartan.

För musen över prickarna för att se namnen på stationerna.

Klicka sedan för att få väderrapporter och prognoser.

För att ändra kartan: Klicka på de gröna knapparna med ett svart kors på för att zooma in; den gröna knappen med ett streck på för att zooma ut; eller på de gröna pilarna för angränsande kartor.


METAR-TAF: